Time;durP1;ratioP1;P1;durP2;ratioP2;P2;SDS_P1;SDS_P2;PMS_P1;PMS_P2;Temp;Humidity;BMP_temperature;BMP_pressure;BME280_temperature;BME280_humidity;BME280_pressure;Samples;Min_cycle;Max_cycle;Signal;HPM_P1;HPM_P2
2024/03/13 12:09:43;;;;;;;10.45;8.02;;;;;;;13.11;82.92;99662.41;6103554;23;20022;-93
2024/03/13 12:12:13;;;;;;;11.40;8.27;;;;;;;13.16;82.29;99660.28;6068231;23;20329;-88
2024/03/13 12:14:40;;;;;;;8.82;7.00;;;;;;;13.21;81.80;99653.81;6068969;23;20022;-87
2024/03/13 12:17:10;;;;;;;10.65;6.63;;;;;;;13.21;82.50;99664.41;6093975;23;20038;-88
2024/03/13 12:19:36;;;;;;;9.30;6.30;;;;;;;13.26;81.69;99663.13;6094101;23;20467;-87
2024/03/13 12:22:03;;;;;;;7.70;6.10;;;;;;;13.29;81.81;99654.13;6067445;23;20109;-87
2024/03/13 12:24:30;;;;;;;8.20;6.22;;;;;;;13.30;81.98;99653.19;6068397;23;20022;-87
2024/03/13 12:26:57;;;;;;;9.60;6.07;;;;;;;13.32;81.61;99656.56;6068898;23;20110;-88
2024/03/13 12:29:27;;;;;;;9.02;6.25;;;;;;;13.33;81.76;99655.63;6093993;23;20027;-87
2024/03/13 12:31:54;;;;;;;6.57;5.45;;;;;;;13.35;81.92;99648.41;6067734;23;20060;-87
2024/03/13 12:34:21;;;;;;;7.28;5.57;;;;;;;13.37;81.78;99648.28;6068507;23;20053;-87
2024/03/13 12:36:47;;;;;;;7.72;6.15;;;;;;;13.39;81.85;99657.81;6094138;23;20037;-87
2024/03/13 12:39:17;;;;;;;6.88;5.32;;;;;;;13.41;81.93;99655.91;6094288;23;20486;-88
2024/03/13 12:41:45;;;;;;;7.38;5.95;;;;;;;13.44;82.22;99657.50;6093202;23;20455;-88
2024/03/13 12:44:13;;;;;;;6.65;5.88;;;;;;;13.48;82.04;99660.78;6068423;23;20026;-88
2024/03/13 12:46:40;;;;;;;9.07;6.05;;;;;;;13.50;81.99;99659.72;6068409;23;20101;-87
2024/03/13 12:49:12;;;;;;;9.05;6.47;;;;;;;13.52;81.97;99662.25;6068335;23;20394;-87
2024/03/13 12:51:41;;;;;;;7.75;6.35;;;;;;;13.55;81.89;99651.47;6067891;23;20025;-88
2024/03/13 12:54:11;;;;;;;9.13;6.40;;;;;;;13.57;81.60;99646.91;6068180;23;20062;-87
2024/03/13 12:56:42;;;;;;;8.85;6.47;;;;;;;13.58;81.98;99655.69;6093839;23;20522;-87
2024/03/13 12:59:11;;;;;;;9.07;6.53;;;;;;;13.60;81.64;99659.09;6068727;23;20105;-88
2024/03/13 13:01:37;;;;;;;8.82;5.88;;;;;;;13.61;81.59;99656.31;6068144;23;20050;-87
2024/03/13 13:04:04;;;;;;;9.38;6.35;;;;;;;13.60;81.44;99653.81;6095938;23;20046;-87
2024/03/13 13:06:31;;;;;;;8.45;6.47;;;;;;;13.61;81.49;99663.44;6070619;23;20101;-88
2024/03/13 13:08:57;;;;;;;8.07;6.53;;;;;;;13.61;81.58;99655.50;6070735;23;20082;-87
2024/03/13 13:11:24;;;;;;;7.30;5.65;;;;;;;13.63;81.48;99656.22;6094700;23;20022;-87
2024/03/13 13:13:51;;;;;;;7.30;5.80;;;;;;;13.60;81.64;99654.63;6096120;23;20109;-88
2024/03/13 13:16:17;;;;;;;8.68;6.60;;;;;;;13.59;81.97;99650.31;6095629;23;20105;-87
2024/03/13 13:18:46;;;;;;;7.45;5.95;;;;;;;13.59;81.87;99650.31;6095729;23;20015;-88
2024/03/13 13:21:13;;;;;;;9.48;6.78;;;;;;;13.60;81.42;99648.53;6070343;23;20018;-88
2024/03/13 13:23:39;;;;;;;9.23;6.25;;;;;;;13.61;81.71;99651.03;6095548;23;20078;-87
2024/03/13 13:26:10;;;;;;;9.23;6.63;;;;;;;13.62;81.69;99657.16;6071339;23;20027;-87
2024/03/13 13:28:37;;;;;;;8.35;6.80;;;;;;;13.60;81.64;99657.28;6096154;23;20026;-87
2024/03/13 13:31:03;;;;;;;13.95;8.07;;;;;;;13.61;81.45;99660.78;6095233;23;20022;-88
2024/03/13 13:33:30;;;;;;;15.95;9.15;;;;;;;13.58;81.72;99661.84;6069349;23;20485;-88
2024/03/13 13:35:57;;;;;;;19.70;12.35;;;;;;;13.54;82.07;99671.78;6070574;23;20030;-89
2024/03/13 13:38:24;;;;;;;19.05;11.63;;;;;;;13.53;81.72;99661.34;6070874;23;20026;-87
2024/03/13 13:40:50;;;;;;;19.80;12.18;;;;;;;13.51;81.85;99671.16;6095093;23;20052;-87
2024/03/13 13:43:17;;;;;;;19.70;12.73;;;;;;;13.49;81.97;99670.44;6096242;23;20034;-88
2024/03/13 13:45:44;;;;;;;22.08;13.18;;;;;;;13.49;82.04;99678.38;6095897;23;20058;-89
2024/03/13 13:48:13;;;;;;;22.45;13.10;;;;;;;13.48;81.86;99668.72;6070889;23;20360;-87
2024/03/13 13:50:41;;;;;;;25.95;13.90;;;;;;;13.45;82.08;99680.34;6094700;23;20018;-87
2024/03/13 13:53:07;;;;;;;23.05;14.10;;;;;;;13.43;82.01;99669.03;6070612;23;20050;-87
2024/03/13 13:55:34;;;;;;;28.20;15.13;;;;;;;13.42;82.06;99673.47;6095528;23;20058;-87
2024/03/13 13:58:03;;;;;;;26.05;14.27;;;;;;;13.40;82.15;99679.81;6070509;23;20082;-87
2024/03/13 14:00:31;;;;;;;20.42;13.68;;;;;;;13.40;82.11;99675.38;6070746;23;20058;-88
2024/03/13 14:02:58;;;;;;;28.63;15.18;;;;;;;13.41;82.31;99676.22;6070263;23;20077;-87
2024/03/13 14:05:26;;;;;;;26.05;16.13;;;;;;;13.40;82.33;99680.69;6095541;23;20024;-87
2024/03/13 14:07:54;;;;;;;30.73;17.98;;;;;;;13.41;82.61;99681.50;6070951;23;20050;-88
2024/03/13 14:10:21;;;;;;;34.28;19.50;;;;;;;13.40;82.85;99688.59;6065291;23;20018;-87
2024/03/13 14:12:47;;;;;;;33.00;18.35;;;;;;;13.43;82.84;99690.19;6066626;23;20101;-87
2024/03/13 14:15:18;;;;;;;34.35;20.35;;;;;;;13.43;82.29;99682.25;6065057;23;20101;-88
2024/03/13 14:17:46;;;;;;;34.17;19.85;;;;;;;13.43;82.29;99680.44;6065642;23;20630;-88
2024/03/13 14:20:18;;;;;;;32.08;19.60;;;;;;;13.42;82.37;99686.69;6066527;23;20467;-87
2024/03/13 14:22:48;;;;;;;32.13;20.10;;;;;;;13.43;82.33;99675.16;6064291;23;20078;-87
2024/03/13 14:25:15;;;;;;;34.28;21.00;;;;;;;13.43;82.16;99680.44;6066616;23;20029;-87
2024/03/13 14:27:42;;;;;;;40.15;21.70;;;;;;;13.43;82.15;99682.25;6065292;23;20193;-87
2024/03/13 14:30:09;;;;;;;40.20;22.50;;;;;;;13.40;82.08;99685.97;6065679;23;20029;-87
2024/03/13 14:32:36;;;;;;;43.42;23.13;;;;;;;13.39;82.28;99684.25;6064649;23;20054;-87
2024/03/13 14:35:05;;;;;;;38.33;22.88;;;;;;;13.38;82.21;99690.50;6065596;23;20027;-87
2024/03/13 14:37:37;;;;;;;41.35;23.85;;;;;;;13.37;82.27;99685.31;6066466;23;20030;-91
2024/03/13 15:51:21;;;;;;;27.95;18.15;;;;;;;13.15;81.63;99698.22;6089839;23;20082;-89
